createdAt,value
2019-02-28T00:01:32.955Z,3.77
2019-02-28T00:04:01.961Z,3.75
2019-02-28T00:06:31.029Z,3.73
2019-02-28T00:09:00.272Z,3.72
2019-02-28T00:11:29.572Z,3.71
2019-02-28T00:13:58.587Z,3.71
2019-02-28T00:16:27.885Z,3.73
2019-02-28T00:18:56.837Z,3.75
2019-02-28T00:21:26.039Z,3.79
2019-02-28T00:23:57.324Z,3.79
2019-02-28T00:26:25.916Z,3.81
2019-02-28T00:28:56.974Z,3.83
2019-02-28T00:31:25.670Z,3.85
2019-02-28T00:33:54.730Z,3.88
2019-02-28T00:36:23.792Z,3.89
2019-02-28T00:38:52.839Z,3.89
2019-02-28T00:41:22.272Z,3.91
2019-02-28T00:43:51.270Z,3.92
2019-02-28T00:46:20.342Z,3.94
2019-02-28T00:48:49.355Z,3.96
2019-02-28T00:51:18.434Z,3.98
2019-02-28T00:53:47.762Z,4.01
2019-02-28T00:56:17.592Z,4.00
2019-02-28T00:58:47.341Z,4.03
2019-02-28T01:01:16.397Z,4.09
2019-02-28T01:03:45.945Z,4.10
2019-02-28T01:06:14.943Z,4.11
2019-02-28T01:08:44.047Z,4.12
2019-02-28T01:11:13.931Z,4.13
2019-02-28T01:13:43.030Z,4.14
2019-02-28T01:16:12.033Z,4.14
2019-02-28T01:18:41.382Z,4.13
2019-02-28T01:21:10.420Z,4.15
2019-02-28T01:23:39.480Z,4.18
2019-02-28T01:26:11.741Z,4.20
2019-02-28T01:28:39.339Z,4.19
2019-02-28T01:31:11.557Z,4.17
2019-02-28T01:33:39.383Z,4.15
2019-02-28T01:36:08.441Z,4.11
2019-02-28T01:38:37.469Z,4.07
2019-02-28T01:41:08.317Z,4.03
2019-02-28T01:43:37.980Z,3.99
2019-02-28T01:46:06.995Z,3.93
2019-02-28T01:48:36.063Z,3.87
2019-02-28T01:51:05.088Z,3.83
2019-02-28T01:53:34.135Z,3.84
2019-02-28T01:56:03.226Z,3.83
2019-02-28T01:58:32.327Z,3.80
2019-02-28T02:01:01.851Z,3.76
2019-02-28T02:03:30.730Z,3.74
2019-02-28T02:05:59.799Z,3.74
2019-02-28T02:08:28.821Z,3.73
2019-02-28T02:10:57.856Z,3.73
2019-02-28T02:13:26.920Z,3.76
2019-02-28T02:15:56.347Z,3.79
2019-02-28T02:18:25.394Z,3.83
2019-02-28T02:20:54.475Z,3.87
2019-02-28T02:23:23.797Z,3.91
2019-02-28T02:25:53.354Z,3.94
2019-02-28T02:28:26.811Z,3.97
2019-02-28T02:30:53.185Z,4.08
2019-02-28T02:33:22.368Z,4.18
2019-02-28T02:35:51.404Z,4.22
2019-02-28T02:38:20.467Z,4.24
2019-02-28T02:40:49.539Z,4.27
2019-02-28T02:43:22.132Z,4.32
2019-02-28T02:45:49.327Z,4.36
2019-02-28T02:48:18.359Z,4.42
2019-02-28T02:50:47.429Z,4.47
2019-02-28T02:53:16.784Z,4.48
2019-02-28T02:55:45.854Z,4.51
2019-02-28T02:58:14.903Z,4.54
2019-02-28T03:00:49.338Z,4.60
2019-02-28T03:03:14.625Z,4.63
2019-02-28T03:05:43.698Z,4.65
2019-02-28T03:08:12.757Z,4.68
2019-02-28T03:10:41.780Z,4.64
2019-02-28T03:13:10.890Z,4.63
2019-02-28T03:15:39.906Z,4.63
2019-02-28T03:18:08.851Z,4.58
2019-02-28T03:20:41.380Z,4.56
2019-02-28T03:23:08.702Z,4.54
2019-02-28T03:25:37.792Z,4.51
2019-02-28T03:28:06.879Z,4.54
2019-02-28T03:30:35.947Z,4.53
2019-02-28T03:33:04.973Z,4.54
2019-02-28T03:35:41.460Z,4.54
2019-02-28T03:38:10.189Z,4.54
2019-02-28T03:40:39.770Z,4.55
2019-02-28T03:43:07.067Z,4.55
2019-02-28T03:45:36.494Z,4.54
2019-02-28T03:48:05.489Z,4.53
2019-02-28T03:50:34.878Z,4.58
2019-02-28T03:53:03.906Z,4.59
2019-02-28T03:55:40.072Z,4.65
2019-02-28T03:58:05.674Z,4.68
2019-02-28T04:00:34.891Z,4.75
2019-02-28T04:03:03.948Z,4.85
2019-02-28T04:05:33.213Z,4.97
2019-02-28T04:08:02.342Z,5.09
2019-02-28T04:10:31.314Z,5.18
2019-02-28T04:13:00.335Z,5.23
2019-02-28T04:15:29.400Z,5.30
2019-02-28T04:17:58.416Z,5.36
2019-02-28T04:20:27.468Z,5.41
2019-02-28T04:22:59.885Z,5.47
2019-02-28T04:25:27.217Z,5.50
2019-02-28T04:27:56.248Z,5.53
2019-02-28T04:30:25.311Z,5.60
2019-02-28T04:32:54.386Z,5.57
2019-02-28T04:35:25.255Z,5.60
2019-02-28T04:37:54.153Z,5.58
2019-02-28T04:40:24.045Z,5.60
2019-02-28T04:42:53.969Z,5.70
2019-02-28T04:45:23.293Z,5.70
2019-02-28T04:47:54.087Z,5.68
2019-02-28T04:50:23.167Z,5.70
2019-02-28T04:52:52.191Z,5.81
2019-02-28T04:55:21.236Z,5.81
2019-02-28T04:57:51.622Z,5.80
2019-02-28T05:00:21.086Z,5.72
2019-02-28T05:02:53.774Z,5.63
2019-02-28T05:05:20.882Z,5.71
2019-02-28T05:07:49.952Z,5.68
2019-02-28T05:10:19.299Z,5.71
2019-02-28T05:12:50.112Z,5.79
2019-02-28T05:15:19.172Z,5.72
2019-02-28T05:17:48.196Z,5.94
2019-02-28T05:20:17.280Z,5.86
2019-02-28T05:22:46.301Z,5.87
2019-02-28T05:25:18.613Z,5.80
2019-02-28T05:27:46.143Z,5.75
2019-02-28T05:30:19.388Z,5.77
2019-02-28T05:32:46.323Z,5.77
2019-02-28T05:35:15.375Z,5.79
2019-02-28T05:37:48.235Z,5.75
2019-02-28T05:40:15.110Z,5.73
2019-02-28T05:42:44.131Z,5.73
2019-02-28T05:45:14.718Z,5.80
2019-02-28T05:47:46.921Z,5.75
2019-02-28T05:50:16.722Z,5.72
2019-02-28T05:52:46.060Z,5.76
2019-02-28T05:55:15.065Z,5.75
2019-02-28T05:57:44.867Z,5.77
2019-02-28T06:00:15.485Z,5.78
2019-02-28T06:02:44.538Z,5.73
2019-02-28T06:05:13.688Z,5.67
2019-02-28T06:07:43.051Z,5.59
2019-02-28T06:10:12.146Z,5.62
2019-02-28T06:12:43.894Z,5.61
2019-02-28T06:15:12.046Z,5.67
2019-02-28T06:17:41.071Z,5.61
2019-02-28T06:20:10.226Z,5.59
2019-02-28T06:22:39.303Z,5.66
2019-02-28T06:25:08.510Z,5.71
2019-02-28T06:27:41.557Z,5.70
2019-02-28T06:30:09.526Z,5.80
2019-02-28T06:32:38.835Z,5.90
2019-02-28T06:35:08.254Z,5.99
2019-02-28T06:37:38.245Z,5.90
2019-02-28T06:40:10.146Z,5.99
2019-02-28T06:42:39.472Z,6.04
2019-02-28T06:45:10.746Z,6.05
2019-02-28T06:47:39.791Z,6.05
2019-02-28T06:50:13.014Z,6.12
2019-02-28T06:52:41.201Z,6.07
2019-02-28T06:55:13.376Z,6.00
2019-02-28T06:57:42.431Z,6.08
2019-02-28T07:00:13.432Z,6.02
2019-02-28T07:02:42.262Z,6.03
2019-02-28T07:05:11.370Z,6.03
2019-02-28T07:07:40.432Z,5.97
2019-02-28T07:10:12.743Z,5.97
2019-02-28T07:12:41.166Z,5.94
2019-02-28T07:15:10.694Z,6.02
2019-02-28T07:17:42.684Z,5.99
2019-02-28T07:20:12.506Z,5.93
2019-02-28T07:22:41.536Z,6.05
2019-02-28T07:25:12.589Z,6.07
2019-02-28T07:27:41.607Z,6.17
2019-02-28T07:30:17.522Z,6.10
2019-02-28T07:32:44.028Z,6.20
2019-02-28T07:35:13.143Z,6.17
2019-02-28T07:37:42.773Z,6.29
2019-02-28T07:40:15.711Z,6.27
2019-02-28T07:42:43.174Z,6.23
2019-02-28T07:45:12.728Z,6.39
2019-02-28T07:47:41.749Z,6.38
2019-02-28T07:50:11.577Z,6.45
2019-02-28T07:52:40.637Z,6.52
2019-02-28T07:55:10.385Z,6.56
2019-02-28T07:57:39.404Z,6.52
2019-02-28T08:00:18.328Z,6.56
2019-02-28T08:02:45.644Z,6.74
2019-02-28T08:05:14.965Z,6.73
2019-02-28T08:07:50.287Z,6.88
2019-02-28T08:10:16.778Z,6.75
2019-02-28T08:12:46.152Z,6.91
2019-02-28T08:15:21.064Z,6.85
2019-02-28T08:17:48.529Z,6.88
2019-02-28T08:20:17.982Z,6.89
2019-02-28T08:22:46.994Z,6.81
2019-02-28T08:25:16.062Z,6.66
2019-02-28T08:27:45.185Z,6.76
2019-02-28T08:30:19.510Z,6.79
2019-02-28T08:32:49.524Z,7.09
2019-02-28T08:35:18.534Z,7.36
2019-02-28T08:37:47.611Z,7.12
2019-02-28T08:40:17.928Z,7.08
2019-02-28T08:42:47.271Z,7.05
2019-02-28T08:45:16.465Z,7.12
2019-02-28T08:47:45.512Z,7.27
2019-02-28T08:50:20.571Z,7.38
2019-02-28T08:52:48.879Z,7.28
2019-02-28T08:55:17.946Z,7.28
2019-02-28T08:57:54.432Z,7.34
2019-02-28T09:00:19.000Z,7.71
2019-02-28T09:02:52.211Z,7.85
2019-02-28T09:05:18.832Z,7.64
2019-02-28T09:07:51.173Z,7.58
2019-02-28T09:10:20.323Z,7.77
2019-02-28T09:12:49.439Z,7.83
2019-02-28T09:15:19.102Z,7.70
2019-02-28T09:17:48.456Z,7.40
2019-02-28T09:20:17.635Z,7.57
2019-02-28T09:22:46.660Z,7.67
2019-02-28T09:25:21.212Z,7.69
2019-02-28T09:27:46.793Z,7.73
2019-02-28T09:30:19.136Z,7.94
2019-02-28T09:32:48.870Z,7.98
2019-02-28T09:35:18.297Z,7.95
2019-02-28T09:37:47.314Z,8.30
2019-02-28T09:40:16.332Z,8.26
2019-02-28T09:42:47.874Z,8.23
2019-02-28T09:45:17.872Z,8.24
2019-02-28T09:47:46.938Z,8.31
2019-02-28T09:50:19.443Z,8.23
2019-02-28T09:52:48.533Z,8.25
2019-02-28T09:55:17.546Z,8.53
2019-02-28T09:57:46.612Z,8.75
2019-02-28T10:00:17.306Z,8.59
2019-02-28T10:02:46.373Z,8.43
2019-02-28T10:05:15.402Z,8.43
2019-02-28T10:07:44.628Z,8.38
2019-02-28T10:10:20.810Z,8.80
2019-02-28T10:12:49.441Z,9.10
2019-02-28T10:15:19.663Z,9.16
2019-02-28T10:17:48.775Z,9.23
2019-02-28T10:20:20.105Z,9.56
2019-02-28T10:22:49.122Z,9.73
2019-02-28T10:25:18.137Z,9.90
2019-02-28T10:27:48.409Z,9.79
2019-02-28T10:30:28.221Z,9.61
2019-02-28T10:32:49.702Z,10.08
2019-02-28T10:35:18.759Z,10.10
2019-02-28T10:37:47.897Z,10.15
2019-02-28T10:40:19.106Z,10.32
2019-02-28T10:42:49.530Z,10.09
2019-02-28T10:45:18.559Z,10.12
2019-02-28T10:47:47.576Z,10.83
2019-02-28T10:50:18.686Z,11.39
2019-02-28T10:52:47.701Z,11.38
2019-02-28T10:55:19.382Z,10.91
2019-02-28T10:57:48.617Z,11.52
2019-02-28T11:00:21.322Z,12.14
2019-02-28T11:02:54.136Z,12.01
2019-02-28T11:05:25.094Z,12.30
2019-02-28T11:07:54.210Z,12.43
2019-02-28T11:10:24.766Z,11.65
2019-02-28T11:12:54.316Z,11.13
2019-02-28T11:15:25.857Z,11.08
2019-02-28T11:17:55.016Z,11.34
2019-02-28T11:20:26.220Z,11.45
2019-02-28T11:22:55.755Z,11.34
2019-02-28T11:25:26.437Z,11.03
2019-02-28T11:27:55.499Z,11.17
2019-02-28T11:30:25.344Z,11.69
2019-02-28T11:32:54.610Z,12.00
2019-02-28T11:35:23.985Z,11.96
2019-02-28T11:37:53.082Z,11.85
2019-02-28T11:40:24.247Z,11.86
2019-02-28T11:42:53.582Z,11.56
2019-02-28T11:45:25.562Z,11.28
2019-02-28T11:47:56.102Z,11.12
2019-02-28T11:50:25.155Z,11.51
2019-02-28T11:52:54.170Z,11.58
2019-02-28T11:55:23.257Z,11.69
2019-02-28T11:57:52.275Z,11.98
2019-02-28T12:00:24.737Z,12.15
2019-02-28T12:02:59.933Z,12.39
2019-02-28T12:05:24.540Z,12.55
2019-02-28T12:07:53.920Z,12.50
2019-02-28T12:10:23.266Z,12.66
2019-02-28T12:12:52.287Z,12.65
2019-02-28T12:15:22.703Z,12.36
2019-02-28T12:17:51.749Z,12.10
2019-02-28T12:20:25.800Z,12.05
2019-02-28T12:22:52.106Z,12.24
2019-02-28T12:25:21.164Z,12.01
2019-02-28T12:27:50.227Z,12.05
2019-02-28T12:30:22.022Z,11.83
2019-02-28T12:32:52.632Z,12.00
2019-02-28T12:35:21.715Z,12.13
2019-02-28T12:37:54.028Z,12.19
2019-02-28T12:40:23.896Z,12.48
2019-02-28T12:42:52.929Z,12.46
2019-02-28T12:45:27.358Z,12.62
2019-02-28T12:47:56.380Z,12.66
2019-02-28T12:50:25.529Z,12.83
2019-02-28T12:52:54.862Z,12.70
2019-02-28T12:55:23.886Z,12.53
2019-02-28T12:57:54.778Z,12.32
2019-02-28T13:00:25.903Z,12.48
2019-02-28T13:02:54.965Z,12.65
2019-02-28T13:05:23.982Z,12.63
2019-02-28T13:07:53.042Z,12.59
2019-02-28T13:10:26.819Z,12.66
2019-02-28T13:12:52.870Z,12.67
2019-02-28T13:15:23.367Z,12.79
2019-02-28T13:17:52.428Z,12.84
2019-02-28T13:20:22.234Z,13.02
2019-02-28T13:22:51.324Z,13.15
2019-02-28T13:25:23.623Z,13.00
2019-02-28T13:27:51.367Z,12.93
2019-02-28T13:30:22.086Z,12.88
2019-02-28T13:32:51.352Z,12.89
2019-02-28T13:35:22.627Z,12.83
2019-02-28T13:37:51.658Z,12.79
2019-02-28T13:40:22.253Z,12.98
2019-02-28T13:42:51.482Z,12.79
2019-02-28T13:45:23.135Z,12.65
2019-02-28T13:47:51.977Z,12.73
2019-02-28T13:50:25.628Z,12.78
2019-02-28T13:52:53.819Z,12.57
2019-02-28T13:55:22.979Z,12.65
2019-02-28T13:57:52.000Z,12.83
2019-02-28T14:00:23.070Z,12.96
2019-02-28T14:02:56.957Z,12.56
2019-02-28T14:05:26.068Z,12.54
2019-02-28T14:07:55.086Z,12.58
2019-02-28T14:10:24.973Z,12.67
2019-02-28T14:12:56.984Z,12.65
2019-02-28T14:15:28.070Z,12.82
2019-02-28T14:17:57.141Z,12.78
2019-02-28T14:20:27.745Z,12.61
2019-02-28T14:22:57.284Z,12.54
2019-02-28T14:25:26.347Z,12.44
2019-02-28T14:27:56.889Z,12.01
2019-02-28T14:30:26.736Z,11.89
2019-02-28T14:32:56.851Z,11.89
2019-02-28T14:35:26.578Z,11.99
2019-02-28T14:37:56.941Z,11.95
2019-02-28T14:40:26.303Z,11.75
2019-02-28T14:42:55.595Z,11.69
2019-02-28T14:45:24.637Z,11.71
2019-02-28T14:47:56.870Z,11.67
2019-02-28T14:50:24.472Z,11.59
2019-02-28T14:52:54.391Z,11.50
2019-02-28T14:55:23.395Z,11.47
2019-02-28T14:57:52.429Z,11.32
2019-02-28T15:00:25.047Z,11.29
2019-02-28T15:02:54.057Z,11.16
2019-02-28T15:05:23.203Z,11.10
2019-02-28T15:07:52.327Z,10.97
2019-02-28T15:10:21.364Z,10.92
2019-02-28T15:12:50.430Z,10.86
2019-02-28T15:15:19.720Z,10.85
2019-02-28T15:17:48.844Z,10.73
2019-02-28T15:20:17.968Z,10.75
2019-02-28T15:22:46.982Z,10.69
2019-02-28T15:25:18.515Z,10.61
2019-02-28T15:27:47.822Z,10.66
2019-02-28T15:30:22.356Z,10.55
2019-02-28T15:32:54.291Z,10.45
2019-02-28T15:35:22.504Z,10.31
2019-02-28T15:37:51.563Z,10.21
2019-02-28T15:40:26.190Z,10.09
2019-02-28T15:42:55.206Z,9.97
2019-02-28T15:45:24.270Z,9.79
2019-02-28T15:47:58.922Z,9.75
2019-02-28T15:50:28.077Z,9.62
2019-02-28T15:52:57.669Z,9.48
2019-02-28T15:55:27.076Z,9.48
2019-02-28T15:57:56.139Z,9.37
2019-02-28T16:00:28.549Z,9.34
2019-02-28T16:02:58.039Z,9.22
2019-02-28T16:05:27.698Z,9.10
2019-02-28T16:07:58.124Z,9.00
2019-02-28T16:10:31.837Z,8.94
2019-02-28T16:13:00.994Z,8.92
2019-02-28T16:15:30.598Z,8.77
2019-02-28T16:17:59.609Z,8.66
2019-02-28T16:20:31.934Z,8.65
2019-02-28T16:22:59.381Z,8.55
2019-02-28T16:25:30.281Z,8.27
2019-02-28T16:27:59.290Z,8.14
2019-02-28T16:30:31.560Z,7.98
2019-02-28T16:32:59.235Z,7.90
2019-02-28T16:35:29.049Z,7.80
2019-02-28T16:37:59.105Z,7.73
2019-02-28T16:40:28.217Z,7.59
2019-02-28T16:42:57.216Z,7.51
2019-02-28T16:45:32.074Z,7.34
2019-02-28T16:48:03.982Z,7.28
2019-02-28T16:50:33.028Z,7.14
2019-02-28T16:53:02.107Z,7.03
2019-02-28T16:55:31.898Z,6.93
2019-02-28T16:58:01.019Z,6.84
2019-02-28T17:00:30.944Z,6.79
2019-02-28T17:03:00.300Z,6.70
2019-02-28T17:05:30.462Z,6.65
2019-02-28T17:07:59.497Z,6.60
2019-02-28T17:10:32.805Z,6.51
2019-02-28T17:13:30.214Z,6.42
2019-02-28T17:16:22.097Z,6.36
2019-02-28T17:18:53.544Z,6.30
2019-02-28T17:21:22.100Z,6.19
2019-02-28T17:23:51.174Z,6.15
2019-02-28T17:26:24.330Z,6.13
2019-02-28T17:29:07.593Z,6.07
2019-02-28T17:31:47.889Z,5.98
2019-02-28T17:34:23.723Z,5.93
2019-02-28T17:36:50.129Z,5.83
2019-02-28T17:39:19.147Z,5.84
2019-02-28T17:41:50.853Z,5.80
2019-02-28T17:44:49.644Z,5.84
2019-02-28T17:47:56.115Z,5.93
2019-02-28T17:50:55.585Z,5.96
2019-02-28T17:54:04.964Z,5.93
2019-02-28T17:57:06.245Z,5.90
2019-02-28T18:00:01.339Z,6.01
2019-02-28T18:03:29.962Z,6.01
2019-02-28T18:06:55.069Z,5.99
2019-02-28T18:10:05.052Z,5.94
2019-02-28T18:13:42.560Z,5.84
2019-02-28T18:16:47.178Z,5.78
2019-02-28T18:19:37.025Z,5.74
2019-02-28T18:22:27.865Z,5.78
2019-02-28T18:25:48.639Z,5.89
2019-02-28T18:28:47.687Z,5.89
2019-02-28T18:31:19.149Z,5.75
2019-02-28T18:34:03.463Z,5.62
2019-02-28T18:36:33.022Z,5.72
2019-02-28T18:39:02.300Z,5.72
2019-02-28T18:41:31.921Z,5.65
2019-02-28T18:44:03.583Z,5.72
2019-02-28T18:46:32.004Z,5.77
2019-02-28T18:49:01.311Z,5.86
2019-02-28T18:51:30.561Z,5.88
2019-02-28T18:54:00.067Z,5.78
2019-02-28T18:56:29.641Z,5.85
2019-02-28T18:58:58.854Z,5.84
2019-02-28T19:01:29.713Z,5.82
2019-02-28T19:03:59.412Z,5.93
2019-02-28T19:06:28.537Z,5.94
2019-02-28T19:08:57.724Z,6.01
2019-02-28T19:11:28.153Z,6.16
2019-02-28T19:13:57.625Z,6.30
2019-02-28T19:16:26.750Z,6.30
2019-02-28T19:18:56.044Z,6.15
2019-02-28T19:21:25.207Z,6.26
2019-02-28T19:23:54.390Z,6.28
2019-02-28T19:26:23.554Z,6.35
2019-02-28T19:28:52.691Z,6.35
2019-02-28T19:31:22.872Z,6.14
2019-02-28T19:33:52.049Z,6.00
2019-02-28T19:36:21.171Z,5.90
2019-02-28T19:38:50.353Z,6.03
2019-02-28T19:41:19.443Z,6.01
2019-02-28T19:43:48.548Z,5.94
2019-02-28T19:46:17.698Z,5.96
2019-02-28T19:48:46.694Z,6.03
2019-02-28T19:51:15.810Z,6.16
2019-02-28T19:53:44.882Z,6.32
2019-02-28T19:56:13.927Z,6.29
2019-02-28T19:58:43.196Z,6.34
2019-02-28T20:01:19.105Z,6.32
2019-02-28T20:03:43.462Z,6.25
2019-02-28T20:06:12.481Z,6.22
2019-02-28T20:08:41.559Z,6.03
2019-02-28T20:11:10.573Z,5.87
2019-02-28T20:13:39.705Z,5.69
2019-02-28T20:16:08.879Z,5.67
2019-02-28T20:18:37.847Z,5.78
2019-02-28T20:21:07.327Z,5.93
2019-02-28T20:23:36.643Z,5.97
2019-02-28T20:26:06.041Z,5.94
2019-02-28T20:28:35.119Z,5.98
2019-02-28T20:31:05.034Z,5.80
2019-02-28T20:33:34.099Z,5.57
2019-02-28T20:36:03.166Z,5.60
2019-02-28T20:38:32.222Z,5.61
2019-02-28T20:41:01.335Z,5.52
2019-02-28T20:43:30.342Z,5.54
2019-02-28T20:45:59.697Z,5.46
2019-02-28T20:48:28.807Z,5.45
2019-02-28T20:50:57.877Z,5.39
2019-02-28T20:53:26.912Z,5.38
2019-02-28T20:55:55.964Z,5.35
2019-02-28T20:58:25.018Z,5.29
2019-02-28T21:00:54.178Z,5.29
2019-02-28T21:03:23.337Z,5.28
2019-02-28T21:05:52.583Z,5.21
2019-02-28T21:08:21.625Z,5.08
2019-02-28T21:10:50.657Z,5.11
2019-02-28T21:13:19.665Z,5.16
2019-02-28T21:15:48.686Z,5.07
2019-02-28T21:18:17.705Z,5.15
2019-02-28T21:20:47.113Z,5.08
2019-02-28T21:23:16.125Z,5.12
2019-02-28T21:25:45.258Z,5.23
2019-02-28T21:28:14.567Z,5.18
2019-02-28T21:30:43.775Z,5.16
2019-02-28T21:33:12.969Z,5.31
2019-02-28T21:35:42.261Z,5.20
2019-02-28T21:38:11.489Z,5.20
2019-02-28T21:40:41.033Z,5.22
2019-02-28T21:43:10.138Z,5.23
2019-02-28T21:45:40.450Z,5.28
2019-02-28T21:48:09.563Z,5.25
2019-02-28T21:50:38.719Z,5.23
2019-02-28T21:53:07.856Z,5.21
2019-02-28T21:55:37.036Z,5.26
2019-02-28T21:58:06.315Z,5.24
2019-02-28T22:00:35.454Z,5.16
2019-02-28T22:03:05.325Z,5.15
2019-02-28T22:05:34.519Z,5.03
2019-02-28T22:08:03.647Z,5.15
2019-02-28T22:10:33.023Z,5.26
2019-02-28T22:13:02.229Z,5.37
2019-02-28T22:15:31.457Z,5.42
2019-02-28T22:18:00.724Z,5.42
2019-02-28T22:20:29.912Z,5.42
2019-02-28T22:22:59.036Z,5.53
2019-02-28T22:25:28.259Z,5.43
2019-02-28T22:27:57.418Z,5.60
2019-02-28T22:30:51.695Z,5.40
2019-02-28T22:33:39.325Z,5.54
2019-02-28T22:36:10.502Z,5.67
2019-02-28T22:38:40.090Z,5.69
2019-02-28T22:41:09.567Z,5.53
2019-02-28T22:43:39.044Z,5.47
2019-02-28T22:46:08.189Z,5.66
2019-02-28T22:48:37.301Z,5.64
2019-02-28T22:51:06.481Z,5.71
2019-02-28T22:53:35.730Z,5.72
2019-02-28T22:56:04.885Z,5.58
2019-02-28T22:58:33.944Z,5.56
2019-02-28T23:01:06.211Z,5.64
2019-02-28T23:03:35.775Z,5.52
2019-02-28T23:06:05.302Z,5.67
2019-02-28T23:08:34.363Z,5.54
2019-02-28T23:11:04.155Z,5.58
2019-02-28T23:13:33.381Z,5.69
2019-02-28T23:16:02.996Z,5.63
2019-02-28T23:18:32.311Z,5.60
2019-02-28T23:21:01.866Z,5.69
2019-02-28T23:23:30.909Z,5.85
2019-02-28T23:26:07.204Z,5.94
2019-02-28T23:28:38.383Z,5.98
2019-02-28T23:31:44.507Z,6.00
2019-02-28T23:34:26.733Z,5.98
2019-02-28T23:36:55.679Z,5.80
2019-02-28T23:39:24.731Z,5.62
2019-02-28T23:41:53.974Z,5.53
2019-02-28T23:44:23.041Z,5.56
2019-02-28T23:46:52.053Z,5.56
2019-02-28T23:49:21.430Z,5.61
2019-02-28T23:51:50.507Z,5.41
2019-02-28T23:54:19.587Z,5.38
2019-02-28T23:56:48.633Z,5.29
2019-02-28T23:59:17.649Z,5.18
